Messwerte Wiesbaden

Temperatur

Temperatur
°C
1576378800 4.00 4.00 6
1576382400 5.00 5.00 6
1576386000 6.00 6.00 7
1576389600 7.00 7.00 8
1576393200 8.00 8.00 8
1576396800 9.00 9.00
1576400400 10.00 10.00 10
1576404000 11.00 11.00 9
1576407600 12.00 12.00 9
1576411200 13.00 13.00 10
1576414800 14.00 14.00 9
1576418400 15.00 15.00 9
1576422000 16.00 16.00 8
1576425600 17.00 17.00 8
1576429200 18.00 18.00 7
1576432800 19.00 19.00 7
1576436400 20.00 20.00
1576440000 21.00 21.00 6
1576443600 22.00 22.00 6
1576447200 23.00 23.00 6
1576450800 0.00 0.00 6
1576454400 1.00 1.00 6
1576458000 2.00 2.00 7
1576461600 3.00 3.00 7

Aktuellste Messwerte

Wettercharakter
Wetter: bedeckt, wenig Regen
Temperatur
7 °C
Feuchtigkeit
98 %
Wind
5 km/hWindrichtung: Ost
Luftdruck
1010 hPa
Messzeit: 16. Dezember 2019, 3.00Datenquelle: METAR

Weitere Messstationen in der Nähe

Messstation Temperatur Entfernung
Frankfurt am Main 8 °C 19 km
Dolgesheim 6.8 °C 29 km
Mannheim - 61 km
Neuhofen 7.8 °C 69 km
Hahn/Hunsrück 5 °C 77 km
Lützeln - 77 km
Ramstein 7 °C 87 km

Wind

Windrichtung Böen Mittelwind
° km/h km/h
1576378800 4.00 3.00 - 4.00 0
1576382400 5.00 4.00 - 5.00 0
1576386000 6.00 5.00 - 6.00 190° 10
1576389600 7.00 6.00 - 7.00 190° 10
1576393200 8.00 7.00 - 8.00 300° 5
1576396800 9.00 8.00 - 9.00
1576400400 10.00 9.00 - 10.00 260° 15
1576404000 11.00 10.00 - 11.00 280° 35 20
1576407600 12.00 11.00 - 12.00 260° 20
1576411200 13.00 12.00 - 13.00 270° 20
1576414800 14.00 13.00 - 14.00 270° 30 20
1576418400 15.00 14.00 - 15.00 260° 20
1576422000 16.00 15.00 - 16.00 250° 15
1576425600 17.00 16.00 - 17.00 230° 15
1576429200 18.00 17.00 - 18.00 230° 5
1576432800 19.00 18.00 - 19.00 210° 5
1576436400 20.00 19.00 - 20.00
1576440000 21.00 20.00 - 21.00 260° 10
1576443600 22.00 21.00 - 22.00 210° 5
1576447200 23.00 22.00 - 23.00 0
1576450800 0.00 23.00 - 0.00 0
1576454400 1.00 0.00 - 1.00 0
1576458000 2.00 1.00 - 2.00 0
1576461600 3.00 2.00 - 3.00 80° 5

Ihre Wetterstation

Fehlt Ihre Wetterstation auf unserem Portal?

Schreiben Sie an network@meteonews.ch

Klima

Wann ist es am wärmsten? Wann regnet es am wenigsten? Unsere Klimadaten geben Auskunft.